Uniondale, New York
Current Conditions -  °F | °C
As of 3:53 AM on Sunday 21 Dec 2014 (Local Time) from KFRG Reporting Station
Overcast Overcast  
Wind Chill: 29°   Ceiling: 2500
Heat Index: 33°   Visibility: 10mi
Dew Point: 23°   Wind: 5mph
Humidity: 66%   Direction: 330°NNW
Pressure: 30.27"   Gusts: NA
Location:  40.72°N, 73.59°W
Report Text: KFRG 210853Z AUTO 33004KT 10SM OVC025 01/M05 A3027 RMK AO2 SLP252 T00061050 56003
Loading
Personal Weather Stations






























Interactive Weather Map New forecast layout! Learn more

10-Day Weather Forecast

Advertisements
Track Severe Weather on mobile